Terminal Aerodrome Forecast
Issued by NWS

Home | Current Version | Previous Version | Text Only | Print | Product List | Glossary On
Versions: 1 2 3 4 5 6 7 8 9 10 11 12 13 14 15 16
000
FTUS45 KSLC 311120
TAFBCE
TAF
KBCE 311120Z 3112/0112 34005KT P6SM SCT060 BKN090
     FM311600 34012KT P6SM SCT150
     FM010300 33008KT P6SM SKC=

USA.gov is the U.S. government's official web portal to all federal, state and local government web resources and services.